Time;durP1;ratioP1;P1;durP2;ratioP2;P2;SDS_P1;SDS_P2;PMS_P1;PMS_P2;Temp;Humidity;BMP_temperature;BMP_pressure;BME280_temperature;BME280_humidity;BME280_pressure;Samples;Min_cycle;Max_cycle;Signal;HPM_P1;HPM_P2
2023/03/02 00:01:22;;;;;;;72.07;38.97;;;4.10;99.90;;;;;;5082006;28;20231;-64
2023/03/02 00:04:15;;;;;;;73.20;40.37;;;4.10;99.90;;;;;;5058937;28;20248;-64
2023/03/02 00:07:08;;;;;;;73.67;40.10;;;4.00;99.90;;;;;;5071919;28;20220;-66
2023/03/02 00:09:58;;;;;;;68.87;38.53;;;4.00;99.90;;;;;;5062413;28;20219;-65
2023/03/02 00:12:47;;;;;;;74.53;38.87;;;4.10;99.90;;;;;;5062546;28;20717;-66
2023/03/02 00:15:35;;;;;;;70.77;39.77;;;4.00;99.90;;;;;;5049508;28;20225;-65
2023/03/02 00:18:24;;;;;;;68.60;38.87;;;4.00;99.90;;;;;;5059895;28;20231;-67
2023/03/02 00:21:13;;;;;;;72.20;40.50;;;3.90;99.90;;;;;;5057272;28;20219;-67
2023/03/02 00:24:02;;;;;;;72.40;41.03;;;3.80;99.90;;;;;;5060759;28;20332;-65
2023/03/02 00:26:52;;;;;;;67.23;39.47;;;3.80;99.90;;;;;;5047068;28;20228;-65
2023/03/02 00:29:41;;;;;;;70.47;40.77;;;3.90;99.90;;;;;;5060170;28;20232;-65
2023/03/02 00:32:30;;;;;;;77.97;41.73;;;3.90;99.90;;;;;;5047214;28;20216;-67
2023/03/02 00:35:19;;;;;;;73.70;40.20;;;3.90;99.90;;;;;;5059358;28;20235;-66
2023/03/02 00:38:08;;;;;;;81.23;40.70;;;3.80;99.90;;;;;;5039332;28;20241;-64
2023/03/02 00:40:58;;;;;;;74.43;41.03;;;3.90;99.90;;;;;;5060500;28;20591;-65
2023/03/02 00:43:49;;;;;;;75.73;40.73;;;3.80;99.90;;;;;;5047980;28;20809;-63
2023/03/02 00:46:37;;;;;;;73.43;39.93;;;3.80;99.90;;;;;;5053122;28;20567;-63
2023/03/02 00:49:27;;;;;;;72.83;40.43;;;3.70;99.90;;;;;;5051046;28;20710;-64
2023/03/02 00:52:16;;;;;;;75.37;41.20;;;3.70;99.90;;;;;;5030206;28;20233;-66
2023/03/02 00:55:05;;;;;;;77.30;41.53;;;3.60;99.90;;;;;;5047595;28;20231;-64
2023/03/02 00:57:55;;;;;;;80.57;43.47;;;3.50;99.90;;;;;;5047908;28;20900;-65
2023/03/02 01:00:49;;;;;;;76.93;41.07;;;3.50;99.90;;;;;;5046747;28;20232;-69
2023/03/02 01:03:39;;;;;;;78.93;41.80;;;3.40;99.90;;;;;;5042653;28;20772;-66
2023/03/02 01:06:29;;;;;;;78.93;42.70;;;3.40;99.90;;;;;;5060760;28;20236;-66
2023/03/02 01:09:18;;;;;;;84.50;42.70;;;3.40;99.90;;;;;;5040806;28;20592;-65
2023/03/02 01:12:10;;;;;;;86.97;45.23;;;3.30;99.90;;;;;;5044282;28;20250;-65
2023/03/02 01:14:59;;;;;;;82.00;44.37;;;3.20;99.90;;;;;;5062966;28;20265;-65
2023/03/02 01:17:49;;;;;;;82.93;45.13;;;3.20;99.90;;;;;;5068402;28;20319;-66
2023/03/02 01:20:38;;;;;;;83.47;45.60;;;3.20;99.90;;;;;;5061288;28;20228;-66
2023/03/02 01:23:27;;;;;;;85.67;45.93;;;3.30;99.90;;;;;;5046607;28;20239;-65
2023/03/02 01:26:16;;;;;;;86.73;44.70;;;3.40;99.90;;;;;;5060845;28;20705;-64
2023/03/02 01:29:05;;;;;;;91.50;45.43;;;3.40;99.90;;;;;;5049445;28;20233;-65
2023/03/02 01:31:53;;;;;;;82.47;44.90;;;3.30;99.90;;;;;;5049346;28;20235;-66
2023/03/02 01:34:44;;;;;;;86.70;43.93;;;3.40;99.90;;;;;;5046815;28;20221;-64
2023/03/02 01:37:33;;;;;;;84.77;44.03;;;3.50;99.90;;;;;;5051667;28;21628;-66
2023/03/02 01:40:22;;;;;;;81.40;43.27;;;3.50;99.90;;;;;;5040854;28;20232;-65
2023/03/02 01:43:14;;;;;;;76.97;40.70;;;3.50;99.90;;;;;;5061035;28;20592;-66
2023/03/02 01:46:06;;;;;;;62.30;34.83;;;3.30;99.90;;;;;;5061376;28;20224;-68
2023/03/02 01:49:11;;;;;;;61.93;32.53;;;3.20;99.90;;;;;;5051151;28;20230;-66
2023/03/02 01:52:31;;;;;;;60.27;32.63;;;3.00;99.90;;;;;;5062609;28;20227;-65
2023/03/02 01:55:24;;;;;;;63.10;33.30;;;2.70;99.90;;;;;;5048640;28;20548;-67
2023/03/02 01:58:16;;;;;;;60.60;34.63;;;2.40;99.90;;;;;;5035660;28;20244;-66
2023/03/02 02:01:14;;;;;;;72.23;37.17;;;2.30;99.90;;;;;;5047787;28;20382;-65
2023/03/02 02:04:04;;;;;;;65.23;34.73;;;2.40;99.90;;;;;;5038419;28;20231;-67
2023/03/02 02:06:58;;;;;;;60.23;31.40;;;2.40;99.90;;;;;;5049839;28;20994;-66
2023/03/02 02:09:53;;;;;;;59.27;30.47;;;2.50;99.90;;;;;;5034938;28;20236;-65
2023/03/02 02:12:41;;;;;;;62.93;32.00;;;2.50;99.90;;;;;;5022209;28;20221;-66
2023/03/02 02:15:31;;;;;;;61.03;31.10;;;2.50;99.90;;;;;;5053029;28;20649;-64
2023/03/02 02:18:19;;;;;;;54.60;29.03;;;2.50;99.90;;;;;;5050353;28;20224;-63
2023/03/02 02:21:09;;;;;;;56.17;28.20;;;2.40;99.90;;;;;;5054646;28;20255;-65
2023/03/02 02:24:07;;;;;;;58.13;29.37;;;2.30;99.90;;;;;;5054234;28;20230;-65
2023/03/02 02:26:58;;;;;;;57.67;29.17;;;2.30;99.90;;;;;;5034806;28;20223;-65
2023/03/02 02:29:50;;;;;;;57.43;29.37;;;2.30;99.90;;;;;;5048472;28;20228;-65
2023/03/02 02:32:41;;;;;;;54.97;26.73;;;2.20;99.90;;;;;;5051003;28;20706;-65
2023/03/02 02:35:33;;;;;;;49.10;26.87;;;2.40;99.90;;;;;;5069675;28;20406;-64
2023/03/02 02:38:24;;;;;;;53.03;26.57;;;2.40;99.90;;;;;;5050807;28;20656;-65
2023/03/02 02:41:20;;;;;;;59.20;27.33;;;2.40;99.90;;;;;;5048808;28;20223;-65
2023/03/02 02:44:15;;;;;;;47.57;24.53;;;2.40;99.90;;;;;;5060274;28;20323;-64
2023/03/02 02:47:05;;;;;;;57.67;26.57;;;2.30;99.90;;;;;;5052317;28;20705;-64
2023/03/02 02:49:56;;;;;;;49.53;25.47;;;2.20;99.90;;;;;;5059704;28;20219;-64
2023/03/02 02:52:51;;;;;;;50.20;26.03;;;2.30;99.90;;;;;;5046052;28;20235;-62
2023/03/02 02:55:42;;;;;;;62.93;26.97;;;2.20;99.90;;;;;;5062947;28;20586;-64
2023/03/02 02:58:37;;;;;;;53.33;26.30;;;2.20;99.90;;;;;;5049054;28;20240;-64
2023/03/02 03:01:28;;;;;;;56.10;27.20;;;2.20;99.90;;;;;;5063372;28;20277;-62
2023/03/02 03:04:20;;;;;;;56.87;27.93;;;2.30;99.90;;;;;;5035086;28;20221;-64
2023/03/02 03:07:12;;;;;;;53.33;26.43;;;2.60;99.90;;;;;;5050498;28;20223;-64
2023/03/02 03:10:07;;;;;;;56.00;26.90;;;2.60;99.90;;;;;;5040981;28;20228;-63
2023/03/02 03:12:57;;;;;;;51.87;27.70;;;2.50;99.90;;;;;;5066118;28;20318;-64
2023/03/02 03:15:47;;;;;;;55.50;27.30;;;2.60;99.90;;;;;;5050790;28;20216;-64
2023/03/02 03:18:38;;;;;;;56.13;27.33;;;2.80;99.90;;;;;;5048754;28;20353;-63
2023/03/02 03:21:27;;;;;;;56.47;27.37;;;2.70;99.90;;;;;;5055434;28;20207;-64
2023/03/02 03:24:16;;;;;;;56.70;27.83;;;2.70;99.90;;;;;;5049382;28;20721;-64
2023/03/02 03:27:05;;;;;;;50.20;27.13;;;2.70;99.90;;;;;;5055670;28;20692;-64
2023/03/02 03:29:57;;;;;;;52.33;27.57;;;2.70;99.90;;;;;;5064392;28;20219;-64
2023/03/02 03:32:46;;;;;;;58.60;29.40;;;2.70;99.90;;;;;;5055370;28;20248;-64
2023/03/02 03:35:38;;;;;;;53.07;27.27;;;2.80;99.90;;;;;;5047997;28;20722;-64
2023/03/02 03:38:27;;;;;;;53.07;27.53;;;2.90;99.90;;;;;;5048722;28;20229;-64
2023/03/02 03:41:16;;;;;;;56.60;28.90;;;3.10;99.90;;;;;;5060327;28;20313;-64
2023/03/02 03:44:05;;;;;;;60.80;28.67;;;3.00;99.90;;;;;;5063995;28;20247;-65
2023/03/02 03:46:55;;;;;;;60.40;29.33;;;3.10;99.90;;;;;;5036819;28;20220;-64
2023/03/02 03:49:44;;;;;;;53.20;27.13;;;3.10;99.90;;;;;;5074264;28;20693;-65
2023/03/02 03:52:34;;;;;;;54.03;28.67;;;3.10;99.90;;;;;;5052304;28;20220;-66
2023/03/02 03:55:30;;;;;;;54.30;28.73;;;3.10;99.90;;;;;;5050096;28;20226;-65
2023/03/02 03:58:19;;;;;;;50.93;28.90;;;3.30;99.90;;;;;;5051745;28;20763;-65
2023/03/02 04:01:08;;;;;;;54.43;27.67;;;3.40;99.90;;;;;;5048366;28;20224;-64
2023/03/02 04:03:57;;;;;;;55.50;27.93;;;3.40;99.90;;;;;;5037550;28;20227;-66
2023/03/02 04:06:46;;;;;;;55.07;27.50;;;3.20;99.90;;;;;;5045447;28;20882;-64
2023/03/02 04:09:38;;;;;;;47.17;26.77;;;3.40;99.90;;;;;;5056417;28;20381;-65
2023/03/02 04:12:28;;;;;;;44.57;23.90;;;3.30;99.90;;;;;;5043756;28;20823;-65
2023/03/02 04:15:17;;;;;;;46.80;25.13;;;3.10;99.90;;;;;;5056166;28;20643;-64
2023/03/02 04:18:08;;;;;;;44.17;24.57;;;2.90;99.90;;;;;;5050852;28;20226;-65
2023/03/02 04:20:57;;;;;;;44.10;25.90;;;3.00;99.90;;;;;;5058479;28;20675;-66
2023/03/02 04:23:46;;;;;;;48.37;25.97;;;3.00;99.90;;;;;;5044925;28;20698;-66
2023/03/02 04:26:37;;;;;;;46.33;25.37;;;3.20;99.90;;;;;;5057972;28;20220;-64
2023/03/02 04:29:26;;;;;;;45.73;25.70;;;3.40;99.90;;;;;;5045946;28;20218;-64
2023/03/02 04:32:16;;;;;;;47.53;26.03;;;3.20;99.90;;;;;;5039507;28;20290;-65
2023/03/02 04:35:10;;;;;;;47.17;25.97;;;3.20;99.90;;;;;;5042337;28;20224;-63
2023/03/02 04:37:59;;;;;;;51.93;27.10;;;3.00;99.90;;;;;;5028168;28;20753;-64
2023/03/02 04:40:48;;;;;;;54.03;27.73;;;3.10;99.90;;;;;;5031825;28;20297;-65
2023/03/02 04:43:38;;;;;;;51.73;27.73;;;3.20;99.90;;;;;;5044618;28;20232;-65
2023/03/02 04:46:28;;;;;;;55.13;28.93;;;3.30;99.90;;;;;;5046555;28;20223;-64
2023/03/02 04:49:19;;;;;;;51.43;27.40;;;3.40;99.90;;;;;;5041303;28;20312;-63
2023/03/02 04:52:07;;;;;;;59.77;30.07;;;3.50;99.90;;;;;;5046241;28;20738;-64
2023/03/02 04:54:56;;;;;;;59.43;30.20;;;3.40;99.90;;;;;;5058295;28;20231;-66
2023/03/02 04:57:48;;;;;;;59.40;31.53;;;3.40;99.90;;;;;;5049800;28;20628;-63
2023/03/02 05:00:38;;;;;;;61.67;31.57;;;3.60;99.90;;;;;;5044922;28;20564;-65
2023/03/02 05:03:27;;;;;;;61.37;32.80;;;3.50;99.90;;;;;;5058558;28;20323;-67
2023/03/02 05:06:17;;;;;;;62.07;33.27;;;3.60;99.90;;;;;;5061748;28;20236;-67
2023/03/02 05:09:05;;;;;;;63.63;32.23;;;3.40;99.90;;;;;;5053796;28;20232;-64
2023/03/02 05:11:55;;;;;;;60.53;31.00;;;3.50;99.90;;;;;;5060093;28;20216;-63
2023/03/02 05:14:43;;;;;;;62.37;31.63;;;3.50;99.90;;;;;;5058586;28;20208;-64
2023/03/02 05:17:38;;;;;;;55.87;29.87;;;3.50;99.90;;;;;;5056434;28;20228;-64
2023/03/02 05:20:29;;;;;;;49.07;27.77;;;3.50;99.90;;;;;;5062104;28;21008;-63
2023/03/02 05:23:23;;;;;;;49.80;27.37;;;3.50;99.90;;;;;;5049860;28;20227;-63
2023/03/02 05:26:14;;;;;;;47.63;25.17;;;3.60;99.90;;;;;;5056548;28;20220;-63
2023/03/02 05:29:03;;;;;;;50.47;24.93;;;3.40;99.90;;;;;;5061469;28;20241;-63
2023/03/02 05:31:51;;;;;;;49.43;26.30;;;3.40;99.90;;;;;;5055100;28;20227;-65
2023/03/02 05:34:42;;;;;;;47.30;26.67;;;3.40;99.90;;;;;;5055653;28;20212;-63
2023/03/02 05:37:31;;;;;;;47.77;25.30;;;3.40;99.90;;;;;;5056110;28;20235;-63
2023/03/02 05:40:22;;;;;;;46.83;25.43;;;3.50;99.90;;;;;;5061606;28;20591;-64
2023/03/02 05:43:15;;;;;;;47.57;26.00;;;3.60;99.90;;;;;;5050254;28;20231;-65
2023/03/02 05:46:04;;;;;;;45.97;23.90;;;3.60;99.90;;;;;;5054829;28;20226;-64
2023/03/02 05:48:53;;;;;;;42.90;24.47;;;3.60;99.90;;;;;;5069952;28;20238;-65
2023/03/02 05:51:43;;;;;;;49.93;25.40;;;3.50;99.90;;;;;;5050798;28;20224;-66
2023/03/02 05:54:32;;;;;;;44.03;25.40;;;3.60;99.90;;;;;;5048276;28;20223;-66
2023/03/02 05:57:20;;;;;;;46.57;24.37;;;3.80;99.90;;;;;;5065020;28;20232;-62
2023/03/02 06:00:11;;;;;;;50.13;26.63;;;3.60;99.90;;;;;;5065679;28;20740;-64
2023/03/02 06:03:01;;;;;;;52.53;27.80;;;3.70;99.90;;;;;;5062045;28;20601;-65
2023/03/02 06:05:51;;;;;;;50.93;26.90;;;3.70;99.90;;;;;;5029193;28;20231;-65
2023/03/02 06:08:41;;;;;;;59.43;28.93;;;3.70;99.90;;;;;;5051176;28;20712;-64
2023/03/02 06:11:31;;;;;;;53.10;28.30;;;3.70;99.90;;;;;;5040888;28;20231;-65
2023/03/02 06:14:19;;;;;;;52.80;27.40;;;3.60;99.90;;;;;;5038749;28;20220;-63
2023/03/02 06:17:08;;;;;;;47.93;26.03;;;3.60;99.90;;;;;;5057989;28;20228;-65
2023/03/02 06:19:57;;;;;;;56.10;26.17;;;3.70;99.90;;;;;;5046415;28;20216;-66
2023/03/02 06:22:47;;;;;;;47.57;26.37;;;3.60;99.90;;;;;;5047491;28;20262;-66
2023/03/02 06:25:40;;;;;;;50.97;27.50;;;3.50;99.90;;;;;;5050086;28;20229;-65
2023/03/02 06:28:32;;;;;;;51.33;27.03;;;3.60;99.90;;;;;;5030710;28;20259;-65
2023/03/02 06:31:38;;;;;;;50.63;26.40;;;3.70;99.90;;;;;;5060543;28;20597;-64
2023/03/02 06:34:28;;;;;;;51.23;27.53;;;3.30;99.90;;;;;;5049487;28;20321;-64
2023/03/02 06:37:17;;;;;;;49.60;25.97;;;3.50;99.90;;;;;;5044369;28;20224;-66
2023/03/02 06:40:09;;;;;;;52.17;26.27;;;3.40;99.90;;;;;;5062373;28;20754;-63
2023/03/02 06:43:00;;;;;;;45.83;25.53;;;3.20;99.90;;;;;;5060201;28;20262;-64
2023/03/02 06:45:51;;;;;;;52.50;25.83;;;3.20;99.90;;;;;;5047253;28;20231;-64
2023/03/02 06:48:40;;;;;;;50.60;25.57;;;3.50;99.90;;;;;;5047239;28;20224;-64
2023/03/02 06:51:29;;;;;;;47.93;25.47;;;3.30;99.90;;;;;;5064024;28;20224;-64
2023/03/02 06:54:18;;;;;;;53.73;26.53;;;3.30;99.90;;;;;;5045820;28;20231;-65
2023/03/02 06:57:07;;;;;;;52.27;27.03;;;3.40;99.90;;;;;;5063610;28;20252;-64
2023/03/02 06:59:57;;;;;;;52.53;27.40;;;3.50;99.90;;;;;;5052640;28;20270;-65
2023/03/02 07:02:48;;;;;;;52.67;28.07;;;3.60;99.90;;;;;;5049588;28;20227;-66
2023/03/02 07:05:37;;;;;;;56.63;30.70;;;3.60;99.90;;;;;;5063994;28;20314;-66
2023/03/02 07:08:26;;;;;;;53.13;28.77;;;3.70;99.90;;;;;;5050946;28;20255;-64
2023/03/02 07:11:14;;;;;;;54.00;28.23;;;3.70;99.90;;;;;;5028143;28;20233;-65
2023/03/02 07:14:04;;;;;;;59.47;29.57;;;3.70;99.90;;;;;;5059364;28;20755;-65
2023/03/02 07:16:56;;;;;;;57.40;28.23;;;3.70;99.90;;;;;;5030031;28;20221;-64
2023/03/02 07:19:45;;;;;;;51.40;27.27;;;3.70;99.90;;;;;;5057387;28;20362;-64
2023/03/02 07:22:34;;;;;;;48.93;26.83;;;3.70;99.90;;;;;;5057782;28;20232;-66
2023/03/02 07:25:23;;;;;;;51.70;28.40;;;3.70;99.90;;;;;;5063907;28;20220;-66
2023/03/02 07:28:11;;;;;;;52.27;28.53;;;3.70;99.90;;;;;;5037544;28;20339;-66
2023/03/02 07:31:00;;;;;;;58.70;29.43;;;3.70;99.90;;;;;;5037970;28;20244;-67
2023/03/02 07:33:51;;;;;;;52.83;28.50;;;3.70;99.90;;;;;;5039974;28;20695;-65
2023/03/02 07:36:40;;;;;;;55.67;28.93;;;3.90;99.90;;;;;;5040676;28;20228;-67
2023/03/02 07:39:29;;;;;;;62.00;30.00;;;3.70;99.90;;;;;;5040060;28;20232;-67
2023/03/02 07:42:18;;;;;;;59.00;30.57;;;3.70;99.90;;;;;;5044809;28;20366;-64
2023/03/02 07:45:12;;;;;;;63.53;31.20;;;3.70;99.90;;;;;;5045190;28;20220;-63
2023/03/02 07:48:01;;;;;;;60.70;30.00;;;3.70;99.90;;;;;;5038669;28;20232;-65
2023/03/02 07:50:51;;;;;;;57.30;30.77;;;3.70;99.90;;;;;;5052944;28;20308;-65
2023/03/02 07:53:40;;;;;;;60.97;32.20;;;3.80;99.90;;;;;;5057834;28;20212;-67
2023/03/02 07:56:29;;;;;;;62.63;30.03;;;3.80;99.90;;;;;;5043879;28;20228;-65
2023/03/02 07:59:18;;;;;;;61.10;30.50;;;3.80;99.90;;;;;;5051997;28;20729;-66
2023/03/02 08:02:09;;;;;;;56.37;29.97;;;3.80;99.90;;;;;;5051799;28;20285;-63
2023/03/02 08:04:58;;;;;;;63.90;32.83;;;3.80;99.90;;;;;;5066018;28;20220;-63
2023/03/02 08:07:48;;;;;;;62.10;31.67;;;3.80;99.90;;;;;;5039567;28;20579;-63
2023/03/02 08:10:38;;;;;;;66.37;32.67;;;3.70;99.90;;;;;;5050758;28;20227;-65
2023/03/02 08:13:27;;;;;;;61.93;32.13;;;3.90;99.90;;;;;;5047733;28;20314;-65
2023/03/02 08:16:16;;;;;;;57.77;31.47;;;3.80;99.90;;;;;;5059839;28;20297;-65
2023/03/02 08:19:05;;;;;;;53.83;29.63;;;3.80;99.90;;;;;;5051673;28;20228;-67
2023/03/02 08:21:54;;;;;;;58.37;29.30;;;3.80;99.90;;;;;;5055210;28;20240;-65
2023/03/02 08:24:44;;;;;;;53.03;29.53;;;3.90;99.90;;;;;;5064093;28;20776;-64
2023/03/02 08:27:33;;;;;;;52.80;27.77;;;4.00;99.90;;;;;;5060976;28;20221;-65
2023/03/02 08:30:22;;;;;;;52.30;28.40;;;4.00;99.90;;;;;;5059864;28;20707;-67
2023/03/02 08:33:11;;;;;;;49.50;26.67;;;3.70;99.90;;;;;;5042768;28;20600;-63
2023/03/02 08:36:02;;;;;;;46.97;26.47;;;3.60;99.90;;;;;;5066970;28;20224;-62
2023/03/02 08:38:51;;;;;;;56.77;28.60;;;3.80;99.90;;;;;;5059231;28;20532;-67
2023/03/02 08:41:41;;;;;;;51.67;28.40;;;3.90;99.90;;;;;;5041522;28;20216;-66
2023/03/02 08:44:31;;;;;;;52.37;28.30;;;4.00;99.90;;;;;;5045701;28;20259;-70
2023/03/02 08:47:19;;;;;;;55.70;28.57;;;4.00;99.90;;;;;;5046134;28;20250;-67
2023/03/02 08:50:10;;;;;;;49.67;27.97;;;4.10;99.90;;;;;;5059882;28;20592;-65
2023/03/02 08:52:58;;;;;;;52.23;27.20;;;4.00;99.90;;;;;;5062804;28;20750;-67
2023/03/02 08:55:47;;;;;;;59.53;29.23;;;3.90;99.90;;;;;;5058560;28;20307;-62
2023/03/02 08:58:37;;;;;;;54.13;28.57;;;3.90;99.90;;;;;;5065559;28;20222;-67
2023/03/02 09:01:28;;;;;;;55.03;28.87;;;3.90;99.90;;;;;;5062398;28;20358;-66
2023/03/02 09:04:17;;;;;;;52.27;27.90;;;4.00;99.90;;;;;;5059700;28;20221;-66
2023/03/02 09:07:06;;;;;;;52.73;28.17;;;4.00;99.90;;;;;;5058514;28;20386;-69
2023/03/02 09:09:55;;;;;;;51.33;27.53;;;4.00;99.90;;;;;;5035482;28;20240;-66
2023/03/02 09:12:44;;;;;;;51.93;27.97;;;4.00;99.90;;;;;;5035649;28;20298;-68
2023/03/02 09:15:34;;;;;;;50.07;28.90;;;4.10;99.90;;;;;;5041956;28;20220;-69
2023/03/02 09:18:23;;;;;;;50.80;28.20;;;4.20;99.90;;;;;;5040451;28;20243;-68
2023/03/02 09:21:12;;;;;;;53.47;27.43;;;4.10;99.90;;;;;;5056440;28;20735;-67
2023/03/02 09:24:01;;;;;;;49.50;26.77;;;4.10;99.90;;;;;;5056935;28;20224;-69
2023/03/02 09:26:50;;;;;;;48.67;26.57;;;4.30;99.90;;;;;;5040229;28;20694;-65
2023/03/02 09:29:39;;;;;;;53.57;26.90;;;4.30;99.90;;;;;;5062926;28;20212;-66
2023/03/02 09:32:29;;;;;;;49.70;27.57;;;4.30;99.90;;;;;;5055637;28;20238;-67
2023/03/02 09:35:20;;;;;;;51.37;27.30;;;4.20;99.90;;;;;;5063580;28;20232;-67
2023/03/02 09:38:11;;;;;;;41.47;24.13;;;4.10;99.90;;;;;;5042125;28;20235;-65
2023/03/02 09:41:34;;;;;;;47.80;26.17;;;4.10;99.90;;;;;;5053816;28;20228;-67
2023/03/02 09:44:52;;;;;;;48.93;25.67;;;4.40;99.90;;;;;;5061480;28;20231;-66
2023/03/02 09:47:51;;;;;;;43.07;23.63;;;4.50;99.90;;;;;;5054147;28;20219;-64
2023/03/02 09:50:47;;;;;;;37.50;21.03;;;4.60;99.90;;;;;;5040044;28;20246;-66
2023/03/02 09:53:44;;;;;;;26.93;16.37;;;4.60;99.90;;;;;;5053452;28;20247;-66
2023/03/02 09:56:44;;;;;;;29.43;16.40;;;4.60;99.90;;;;;;5053676;28;20220;-67
2023/03/02 09:59:41;;;;;;;27.80;16.10;;;4.60;99.90;;;;;;5055910;28;20274;-66
2023/03/02 10:02:36;;;;;;;25.43;15.33;;;4.60;99.90;;;;;;5055796;28;20364;-65
2023/03/02 10:05:30;;;;;;;28.13;15.17;;;4.70;99.90;;;;;;5058296;28;20231;-65
2023/03/02 10:08:22;;;;;;;25.50;15.90;;;4.60;99.90;;;;;;5052592;28;20308;-64
2023/03/02 10:11:19;;;;;;;29.30;16.77;;;4.80;99.90;;;;;;5045685;28;20334;-64
2023/03/02 10:14:15;;;;;;;29.47;15.83;;;4.80;99.90;;;;;;5054286;28;20222;-63
2023/03/02 10:17:37;;;;;;;29.77;15.83;;;4.70;99.90;;;;;;5058700;28;20232;-62
2023/03/02 10:20:34;;;;;;;29.30;16.83;;;4.80;99.90;;;;;;5054427;28;20216;-64
2023/03/02 10:23:41;;;;;;;32.67;18.57;;;4.80;99.90;;;;;;5055887;28;20222;-64
2023/03/02 10:26:38;;;;;;;26.90;15.93;;;4.90;99.90;;;;;;5051368;28;20220;-64
2023/03/02 10:29:43;;;;;;;24.90;14.70;;;4.70;99.90;;;;;;5058509;28;20231;-65
2023/03/02 10:32:35;;;;;;;24.33;13.80;;;4.70;99.90;;;;;;5044791;28;20216;-65
2023/03/02 10:35:26;;;;;;;26.60;14.23;;;4.80;99.90;;;;;;5048759;28;20228;-64
2023/03/02 10:38:19;;;;;;;23.33;15.03;;;4.70;99.90;;;;;;5047612;28;20607;-64
2023/03/02 10:41:17;;;;;;;28.73;17.43;;;4.70;99.90;;;;;;5042301;28;20241;-66
2023/03/02 10:44:14;;;;;;;20.33;11.73;;;4.60;99.90;;;;;;5036688;28;21069;-65
2023/03/02 10:47:03;;;;;;;16.37;10.20;;;4.70;99.90;;;;;;5047349;28;20216;-65
2023/03/02 10:49:52;;;;;;;13.17;8.40;;;4.70;99.90;;;;;;5069583;28;20508;-66
2023/03/02 10:52:50;;;;;;;7.93;5.00;;;4.90;99.90;;;;;;5060029;28;20223;-66
2023/03/02 10:55:52;;;;;;;7.43;4.73;;;4.90;99.90;;;;;;5061919;28;20575;-66
2023/03/02 10:58:41;;;;;;;18.80;11.33;;;5.10;99.90;;;;;;5067420;28;20965;-64
2023/03/02 11:01:31;;;;;;;12.93;6.50;;;5.20;99.90;;;;;;5045147;28;20233;-65
2023/03/02 11:04:20;;;;;;;6.80;4.97;;;5.10;99.90;;;;;;5042798;28;20255;-65
2023/03/02 11:07:11;;;;;;;9.60;5.70;;;5.20;99.90;;;;;;5061392;28;20240;-65
2023/03/02 11:10:02;;;;;;;8.83;5.80;;;5.20;99.90;;;;;;5057964;28;20250;-66
2023/03/02 11:12:53;;;;;;;9.87;5.87;;;5.10;99.90;;;;;;5044840;28;20722;-65
2023/03/02 11:15:46;;;;;;;12.03;6.03;;;5.20;99.90;;;;;;5057013;28;20244;-64
2023/03/02 11:18:39;;;;;;;11.40;7.70;;;5.20;99.90;;;;;;5036444;28;20213;-64
2023/03/02 11:21:34;;;;;;;11.63;7.17;;;5.30;99.90;;;;;;5048227;28;20231;-65
2023/03/02 11:24:29;;;;;;;14.10;7.20;;;5.30;99.90;;;;;;5045606;28;20341;-64
2023/03/02 11:27:23;;;;;;;14.10;7.80;;;5.20;99.90;;;;;;5046339;28;20273;-63
2023/03/02 11:30:18;;;;;;;12.13;8.03;;;5.30;99.90;;;;;;5053440;28;20320;-63
2023/03/02 11:33:13;;;;;;;12.43;8.63;;;5.30;99.90;;;;;;5049519;28;21082;-63
2023/03/02 11:36:07;;;;;;;13.47;8.33;;;5.10;99.90;;;;;;5059290;28;20224;-63
2023/03/02 11:38:56;;;;;;;9.90;6.97;;;5.10;99.90;;;;;;5064595;28;20228;-64
2023/03/02 11:41:45;;;;;;;11.27;6.90;;;5.00;99.90;;;;;;5063572;28;20231;-66
2023/03/02 11:44:35;;;;;;;12.80;8.23;;;5.00;99.90;;;;;;5047001;28;20807;-66
2023/03/02 11:47:25;;;;;;;14.70;8.07;;;5.20;99.90;;;;;;5042068;28;20232;-65
2023/03/02 11:50:16;;;;;;;15.30;8.57;;;5.20;99.90;;;;;;5059487;28;20259;-64
2023/03/02 11:53:07;;;;;;;14.43;9.60;;;5.20;99.90;;;;;;5066062;28;20220;-65
2023/03/02 11:55:56;;;;;;;15.50;8.33;;;5.30;99.90;;;;;;5054983;28;20725;-61
2023/03/02 11:58:48;;;;;;;13.57;8.70;;;5.40;99.90;;;;;;5065104;28;20898;-64
2023/03/02 12:01:39;;;;;;;13.37;8.30;;;5.40;99.90;;;;;;5061254;28;20224;-64
2023/03/02 12:04:33;;;;;;;16.57;9.27;;;5.40;99.90;;;;;;5061534;28;21070;-64
2023/03/02 12:07:24;;;;;;;16.97;9.53;;;5.40;99.90;;;;;;5065439;28;21055;-64
2023/03/02 12:10:30;;;;;;;16.30;10.13;;;5.40;99.90;;;;;;5067092;28;20552;-64
2023/03/02 12:13:23;;;;;;;18.10;9.30;;;5.40;99.90;;;;;;5050685;28;20338;-61
2023/03/02 12:16:20;;;;;;;17.00;9.73;;;5.50;99.90;;;;;;5065961;28;20250;-65
2023/03/02 12:19:24;;;;;;;18.50;10.00;;;5.50;99.90;;;;;;5067686;28;20216;-64
2023/03/02 12:22:25;;;;;;;19.00;10.07;;;5.40;99.90;;;;;;5060497;28;20667;-64
2023/03/02 12:25:29;;;;;;;18.60;10.07;;;5.40;99.90;;;;;;5056910;28;20246;-64
2023/03/02 12:28:30;;;;;;;17.10;10.57;;;5.40;99.90;;;;;;5063021;28;20225;-65
2023/03/02 12:31:19;;;;;;;20.83;11.93;;;5.50;99.90;;;;;;5064408;28;20239;-63
2023/03/02 12:34:26;;;;;;;14.83;10.20;;;5.50;99.90;;;;;;5058186;28;21009;-63
2023/03/02 12:37:21;;;;;;;17.50;10.90;;;5.50;99.90;;;;;;5058619;28;20319;-63
2023/03/02 12:40:31;;;;;;;19.43;10.70;;;5.40;99.90;;;;;;5030012;28;20229;-61
2023/03/02 12:43:27;;;;;;;17.30;10.70;;;5.30;99.90;;;;;;5043032;28;20224;-62
2023/03/02 12:46:31;;;;;;;17.87;10.70;;;5.40;99.90;;;;;;5047337;28;20671;-65
2023/03/02 12:49:46;;;;;;;18.90;11.83;;;5.50;99.90;;;;;;5039036;28;20685;-63
2023/03/02 12:52:37;;;;;;;16.70;10.73;;;5.40;99.90;;;;;;5054341;28;20780;-65
2023/03/02 12:55:26;;;;;;;19.03;11.57;;;5.30;99.90;;;;;;5062111;28;20263;-63
2023/03/02 12:58:19;;;;;;;22.83;12.63;;;5.40;99.90;;;;;;5048006;28;20691;-63
2023/03/02 13:01:21;;;;;;;22.53;12.63;;;5.40;99.90;;;;;;5069805;28;20242;-65
2023/03/02 13:04:21;;;;;;;19.50;12.90;;;5.50;99.90;;;;;;5061621;28;20232;-64
2023/03/02 13:07:19;;;;;;;20.87;13.00;;;5.50;99.90;;;;;;5056930;28;20231;-66
2023/03/02 13:10:21;;;;;;;20.20;11.97;;;5.50;99.90;;;;;;5055377;28;20367;-64
2023/03/02 13:13:16;;;;;;;18.83;12.00;;;5.60;99.90;;;;;;5054569;28;20229;-64
2023/03/02 13:16:07;;;;;;;20.37;11.90;;;5.60;99.90;;;;;;5059089;28;20260;-68
2023/03/02 13:18:59;;;;;;;21.37;12.20;;;5.60;99.90;;;;;;5039277;28;20217;-63
2023/03/02 13:21:49;;;;;;;19.20;12.50;;;5.70;99.90;;;;;;5027757;28;20912;-63
2023/03/02 13:24:46;;;;;;;21.20;12.07;;;5.80;99.90;;;;;;5045973;28;20232;-65
2023/03/02 13:27:36;;;;;;;18.73;12.07;;;5.80;99.90;;;;;;5042698;28;20227;-65
2023/03/02 13:30:28;;;;;;;22.30;12.63;;;5.70;99.90;;;;;;5045295;28;20582;-66
2023/03/02 13:33:21;;;;;;;19.93;13.00;;;5.60;99.90;;;;;;5050670;28;20273;-65
2023/03/02 13:36:18;;;;;;;17.47;12.27;;;5.80;99.90;;;;;;5058888;28;20243;-65
2023/03/02 13:39:17;;;;;;;22.20;13.40;;;5.80;99.90;;;;;;5043426;28;20228;-67
2023/03/02 13:42:07;;;;;;;23.63;13.50;;;5.80;99.90;;;;;;5041777;28;20347;-65
2023/03/02 13:45:08;;;;;;;21.90;13.57;;;5.70;99.90;;;;;;5057158;28;20311;-67
2023/03/02 13:47:58;;;;;;;18.33;12.67;;;5.70;99.90;;;;;;5052203;28;20224;-64
2023/03/02 13:50:54;;;;;;;16.30;11.03;;;5.80;99.90;;;;;;5061288;28;20243;-64
2023/03/02 13:53:51;;;;;;;17.50;11.57;;;5.70;99.90;;;;;;5052720;28;20744;-64
2023/03/02 13:56:42;;;;;;;23.90;12.53;;;5.80;99.90;;;;;;5022053;28;20320;-67
2023/03/02 13:59:35;;;;;;;23.10;12.27;;;5.80;99.90;;;;;;5045357;28;20228;-67
2023/03/02 14:02:27;;;;;;;22.17;12.50;;;5.80;99.90;;;;;;5055467;28;20731;-66
2023/03/02 14:05:18;;;;;;;19.33;12.10;;;5.80;99.90;;;;;;5052313;28;20734;-67
2023/03/02 14:08:07;;;;;;;20.60;13.03;;;5.70;99.90;;;;;;5054765;28;20229;-67
2023/03/02 14:10:58;;;;;;;22.53;12.93;;;5.70;99.90;;;;;;5061285;28;20235;-67
2023/03/02 14:13:52;;;;;;;21.10;11.80;;;5.80;99.90;;;;;;5062269;28;20220;-67
2023/03/02 14:16:41;;;;;;;18.43;12.43;;;5.80;99.90;;;;;;5044889;28;20289;-67
2023/03/02 14:19:32;;;;;;;21.27;12.60;;;5.80;99.90;;;;;;5044133;28;20220;-66
2023/03/02 14:22:22;;;;;;;21.50;13.17;;;5.80;99.90;;;;;;5051172;28;20303;-66
2023/03/02 14:25:11;;;;;;;21.07;13.30;;;5.80;99.90;;;;;;5056223;28;20595;-66
2023/03/02 14:28:00;;;;;;;20.03;12.70;;;5.80;99.90;;;;;;5047412;28;20224;-65
2023/03/02 14:30:51;;;;;;;18.57;12.10;;;5.80;99.90;;;;;;5064240;28;20231;-63
2023/03/02 14:33:41;;;;;;;22.33;13.13;;;5.80;99.90;;;;;;5049791;28;20297;-65
2023/03/02 14:36:34;;;;;;;77.27;40.57;;;5.80;99.90;;;;;;5054126;28;20227;-64
2023/03/02 14:39:30;;;;;;;24.23;14.03;;;5.90;99.90;;;;;;5061361;28;20704;-65
2023/03/02 14:42:20;;;;;;;21.57;13.40;;;5.90;99.90;;;;;;5062433;28;20212;-63
2023/03/02 14:45:10;;;;;;;20.90;12.93;;;5.80;99.90;;;;;;5062574;28;20221;-64